createdAt,value
2018-01-01T00:00:12.229Z,2.63
2018-01-01T00:02:42.662Z,2.90
2018-01-01T00:05:09.801Z,2.00
2018-01-01T00:07:36.071Z,2.60
2018-01-01T00:10:02.499Z,2.60
2018-01-01T00:12:29.414Z,1.93
2018-01-01T00:14:55.692Z,2.40
2018-01-01T00:17:22.035Z,4.63
2018-01-01T00:19:48.311Z,1.50
2018-01-01T00:22:14.638Z,1.10
2018-01-01T00:24:40.934Z,1.77
2018-01-01T00:27:07.987Z,1.20
2018-01-01T00:29:34.254Z,0.93
2018-01-01T00:32:00.538Z,1.27
2018-01-01T00:34:26.810Z,0.97
2018-01-01T00:36:53.115Z,0.97
2018-01-01T00:39:20.250Z,1.43
2018-01-01T00:41:47.290Z,1.37
2018-01-01T00:44:14.349Z,1.90
2018-01-01T00:46:40.644Z,2.90
2018-01-01T00:49:06.971Z,2.00
2018-01-01T00:51:34.351Z,1.73
2018-01-01T00:54:00.652Z,1.80
2018-01-01T00:56:26.971Z,1.97
2018-01-01T00:58:53.274Z,1.87
2018-01-01T01:01:19.631Z,2.67
2018-01-01T01:03:45.900Z,2.40
2018-01-01T01:06:12.889Z,4.20
2018-01-01T01:08:40.550Z,2.93
2018-01-01T01:11:06.826Z,2.87
2018-01-01T01:13:33.099Z,3.17
2018-01-01T01:15:59.374Z,2.93
2018-01-01T01:18:27.579Z,2.90
2018-01-01T01:20:53.868Z,3.30
2018-01-01T01:23:20.916Z,3.50
2018-01-01T01:25:47.249Z,3.40
2018-01-01T01:28:13.612Z,3.90
2018-01-01T01:30:39.901Z,3.73
2018-01-01T01:33:06.189Z,3.50
2018-01-01T01:35:32.475Z,16.50
2018-01-01T01:37:59.512Z,3.73
2018-01-01T01:40:26.549Z,3.67
2018-01-01T01:42:52.875Z,3.13
2018-01-01T01:45:19.245Z,4.80
2018-01-01T01:47:46.260Z,3.33
2018-01-01T01:50:12.531Z,4.57
2018-01-01T01:52:38.882Z,3.47
2018-01-01T01:55:05.147Z,3.10
2018-01-01T01:57:32.155Z,3.57
2018-01-01T01:59:58.550Z,10.93
2018-01-01T02:02:24.822Z,3.63
2018-01-01T02:04:51.826Z,3.30
2018-01-01T02:07:18.183Z,5.37
2018-01-01T02:09:44.491Z,2.90
2018-01-01T02:12:10.795Z,3.03
2018-01-01T02:14:37.830Z,2.40
2018-01-01T02:17:04.841Z,2.40
2018-01-01T02:19:31.218Z,2.40
2018-01-01T02:21:57.502Z,2.10
2018-01-01T02:24:24.563Z,2.23
2018-01-01T02:26:50.847Z,1.77
2018-01-01T02:29:17.143Z,2.20
2018-01-01T02:31:43.511Z,2.13
2018-01-01T02:34:09.815Z,1.27
2018-01-01T02:36:36.174Z,1.30
2018-01-01T02:39:02.503Z,1.27
2018-01-01T02:41:28.750Z,0.90
2018-01-01T02:43:55.806Z,1.00
2018-01-01T02:46:22.084Z,1.37
2018-01-01T02:48:49.222Z,1.03
2018-01-01T02:51:16.237Z,1.47
2018-01-01T02:53:42.499Z,1.00
2018-01-01T02:56:08.823Z,0.80
2018-01-01T02:58:35.098Z,1.43
2018-01-01T03:01:02.107Z,1.20
2018-01-01T03:03:28.363Z,0.60
2018-01-01T03:05:54.650Z,1.00
2018-01-01T03:08:20.898Z,1.10
2018-01-01T03:10:47.488Z,0.93
2018-01-01T03:13:13.772Z,0.90
2018-01-01T03:15:40.068Z,1.13
2018-01-01T03:18:06.398Z,0.97
2018-01-01T03:20:32.685Z,0.80
2018-01-01T03:22:58.938Z,0.80
2018-01-01T03:25:25.214Z,1.33
2018-01-01T03:27:51.518Z,1.10
2018-01-01T03:30:17.782Z,0.80
2018-01-01T03:32:44.083Z,1.07
2018-01-01T03:35:11.179Z,0.80
2018-01-01T03:37:37.434Z,1.00
2018-01-01T03:40:04.465Z,0.77
2018-01-01T03:42:31.480Z,8.47
2018-01-01T03:44:57.871Z,1.17
2018-01-01T03:47:24.145Z,1.97
2018-01-01T03:49:50.442Z,1.90
2018-01-01T03:52:17.455Z,1.40
2018-01-01T03:54:43.732Z,1.00
2018-01-01T03:57:10.048Z,0.73
2018-01-01T03:59:36.323Z,1.17
2018-01-01T04:02:03.400Z,1.33
2018-01-01T04:04:29.691Z,1.60
2018-01-01T04:06:56.054Z,1.13
2018-01-01T04:09:22.335Z,2.03
2018-01-01T04:11:48.613Z,1.80
2018-01-01T04:14:14.904Z,1.87
2018-01-01T04:16:41.162Z,1.43
2018-01-01T04:19:08.187Z,1.80
2018-01-01T04:21:34.461Z,1.50
2018-01-01T04:24:00.743Z,1.27
2018-01-01T04:26:27.039Z,1.13
2018-01-01T04:28:54.050Z,1.23
2018-01-01T04:31:20.329Z,1.00
2018-01-01T04:33:46.621Z,0.80
2018-01-01T04:36:12.985Z,1.03
2018-01-01T04:38:39.251Z,1.03
2018-01-01T04:41:05.533Z,0.90
2018-01-01T04:43:32.086Z,1.20
2018-01-01T04:45:58.374Z,1.63
2018-01-01T04:48:25.397Z,1.33
2018-01-01T04:50:52.414Z,0.90
2018-01-01T04:53:18.672Z,1.37
2018-01-01T04:55:44.970Z,1.73
2018-01-01T04:58:11.970Z,1.63
2018-01-01T05:00:38.236Z,1.17
2018-01-01T05:03:04.538Z,1.30
2018-01-01T05:05:31.545Z,1.50
2018-01-01T05:07:57.904Z,1.30
2018-01-01T05:10:24.185Z,1.80
2018-01-01T05:12:50.454Z,1.07
2018-01-01T05:15:16.720Z,1.83
2018-01-01T05:17:42.996Z,1.70
2018-01-01T05:20:09.253Z,1.10
2018-01-01T05:22:36.330Z,0.90
2018-01-01T05:25:02.632Z,1.43
2018-01-01T05:27:28.894Z,0.73
2018-01-01T05:29:55.236Z,1.10
2018-01-01T05:32:22.261Z,0.63
2018-01-01T05:34:49.298Z,0.30
2018-01-01T05:37:16.298Z,0.50
2018-01-01T05:39:42.605Z,0.83
2018-01-01T05:42:08.863Z,0.43
2018-01-01T05:44:35.889Z,0.50
2018-01-01T05:47:03.116Z,0.47
2018-01-01T05:49:29.371Z,0.20
2018-01-01T05:51:55.650Z,0.27
2018-01-01T05:54:21.933Z,0.40
2018-01-01T05:56:48.201Z,0.30
2018-01-01T05:59:14.457Z,0.30
2018-01-01T06:01:40.732Z,0.20
2018-01-01T06:04:07.005Z,0.17
2018-01-01T06:06:33.261Z,0.20
2018-01-01T06:08:59.538Z,0.20
2018-01-01T06:11:25.801Z,0.10
2018-01-01T06:13:52.051Z,0.10
2018-01-01T06:16:18.329Z,0.30
2018-01-01T06:18:44.610Z,0.30
2018-01-01T06:21:10.926Z,0.13
2018-01-01T06:23:37.210Z,0.20
2018-01-01T06:26:03.469Z,0.20
2018-01-01T06:28:29.713Z,0.50
2018-01-01T06:30:56.733Z,0.00
2018-01-01T06:33:22.982Z,0.17
2018-01-01T06:35:49.262Z,0.30
2018-01-01T06:38:15.541Z,0.30
2018-01-01T06:40:41.796Z,0.20
2018-01-01T06:43:08.047Z,0.30
2018-01-01T06:45:34.359Z,0.30
2018-01-01T06:48:00.613Z,0.10
2018-01-01T06:50:26.865Z,0.50
2018-01-01T06:52:53.953Z,0.40
2018-01-01T06:55:20.205Z,0.70
2018-01-01T06:57:47.198Z,0.40
2018-01-01T07:00:13.476Z,0.40
2018-01-01T07:02:39.734Z,1.27
2018-01-01T07:05:05.998Z,0.80
2018-01-01T07:07:32.307Z,1.00
2018-01-01T07:09:59.329Z,0.60
2018-01-01T07:12:26.321Z,1.10
2018-01-01T07:14:52.617Z,0.87
2018-01-01T07:17:18.918Z,0.57
2018-01-01T07:19:45.180Z,0.80
2018-01-01T07:22:11.466Z,0.57
2018-01-01T07:24:37.718Z,0.33
2018-01-01T07:27:03.973Z,0.40
2018-01-01T07:29:30.255Z,0.30
2018-01-01T07:31:56.515Z,0.77
2018-01-01T07:34:22.779Z,0.30
2018-01-01T07:36:49.078Z,0.30
2018-01-01T07:39:16.135Z,0.47
2018-01-01T07:41:42.388Z,0.30
2018-01-01T07:44:08.689Z,0.20
2018-01-01T07:46:34.946Z,0.20
2018-01-01T07:49:01.946Z,0.23
2018-01-01T07:51:28.232Z,0.30
2018-01-01T07:53:54.530Z,0.20
2018-01-01T07:56:20.785Z,0.30
2018-01-01T07:58:47.069Z,0.60
2018-01-01T08:01:13.310Z,0.30
2018-01-01T08:03:39.565Z,6.90
2018-01-01T08:06:06.586Z,1.43
2018-01-01T08:08:32.845Z,6.97
2018-01-01T08:10:59.104Z,1.27
2018-01-01T08:13:25.390Z,3.80
2018-01-01T08:15:51.640Z,14.27
2018-01-01T08:18:17.922Z,22.27
2018-01-01T08:20:44.194Z,40.23
2018-01-01T08:23:11.193Z,15.17
2018-01-01T08:25:37.462Z,14.63
2018-01-01T08:28:03.733Z,24.77
2018-01-01T08:30:29.981Z,10.50
2018-01-01T08:32:56.245Z,12.10
2018-01-01T08:35:22.556Z,7.83
2018-01-01T08:37:48.873Z,4.70
2018-01-01T08:40:15.134Z,4.60
2018-01-01T08:42:42.152Z,3.03
2018-01-01T08:45:09.245Z,2.13
2018-01-01T08:47:35.530Z,1.63
2018-01-01T08:50:01.819Z,1.10
2018-01-01T08:52:28.881Z,23.83
2018-01-01T08:54:55.129Z,11.37
2018-01-01T08:57:21.414Z,4.87
2018-01-01T08:59:47.674Z,1.23
2018-01-01T09:02:13.939Z,0.97
2018-01-01T09:04:40.275Z,0.67
2018-01-01T09:07:06.531Z,1.23
2018-01-01T09:09:32.810Z,1.27
2018-01-01T09:11:59.085Z,1.07
2018-01-01T09:14:26.082Z,1.23
2018-01-01T09:16:52.342Z,1.50
2018-01-01T09:19:18.693Z,1.37
2018-01-01T09:21:44.958Z,1.13
2018-01-01T09:24:11.205Z,1.13
2018-01-01T09:26:37.515Z,1.30
2018-01-01T09:29:04.508Z,0.97
2018-01-01T09:31:30.767Z,1.07
2018-01-01T09:33:57.077Z,1.20
2018-01-01T09:36:24.072Z,1.27
2018-01-01T09:38:50.321Z,1.57
2018-01-01T09:41:17.343Z,1.63
2018-01-01T09:43:44.341Z,1.17
2018-01-01T09:46:10.632Z,1.50
2018-01-01T09:48:36.912Z,1.00
2018-01-01T09:51:03.178Z,1.33
2018-01-01T09:53:29.451Z,1.50
2018-01-01T09:55:55.727Z,1.33
2018-01-01T09:58:21.993Z,1.17
2018-01-01T10:00:48.248Z,2.27
2018-01-01T10:03:14.528Z,3.17
2018-01-01T10:05:40.801Z,1.07
2018-01-01T10:08:07.801Z,1.60
2018-01-01T10:10:34.095Z,1.60
2018-01-01T10:13:00.358Z,1.83
2018-01-01T10:15:27.370Z,1.57
2018-01-01T10:17:53.665Z,0.83
2018-01-01T10:20:19.933Z,1.63
2018-01-01T10:22:46.211Z,0.80
2018-01-01T10:25:12.601Z,1.47
2018-01-01T10:27:38.867Z,1.70
2018-01-01T10:30:05.857Z,1.33
2018-01-01T10:32:32.158Z,1.07
2018-01-01T10:34:58.466Z,1.73
2018-01-01T10:37:24.714Z,1.00
2018-01-01T10:39:51.033Z,1.70
2018-01-01T10:42:17.295Z,1.80
2018-01-01T10:44:43.573Z,1.40
2018-01-01T10:47:09.861Z,1.27
2018-01-01T10:49:36.122Z,1.93
2018-01-01T10:52:03.186Z,1.40
2018-01-01T10:54:29.494Z,8.30
2018-01-01T10:56:55.770Z,2.80
2018-01-01T10:59:22.877Z,3.10
2018-01-01T11:01:49.181Z,0.90
2018-01-01T11:04:15.433Z,0.40
2018-01-01T11:06:41.688Z,0.40
2018-01-01T11:09:08.300Z,0.20
2018-01-01T11:11:34.940Z,0.50
2018-01-01T11:14:01.180Z,0.60
2018-01-01T11:16:28.226Z,0.30
2018-01-01T11:18:54.540Z,0.70
2018-01-01T11:21:20.789Z,0.80
2018-01-01T11:23:47.060Z,0.73
2018-01-01T11:26:13.305Z,0.70
2018-01-01T11:28:39.562Z,0.80
2018-01-01T11:31:05.985Z,1.60
2018-01-01T11:33:32.242Z,1.47
2018-01-01T11:35:58.498Z,1.27
2018-01-01T11:38:24.782Z,1.63
2018-01-01T11:40:51.105Z,1.40
2018-01-01T11:43:17.353Z,1.20
2018-01-01T11:45:43.652Z,1.53
2018-01-01T11:48:09.917Z,0.90
2018-01-01T11:50:36.188Z,1.43
2018-01-01T11:53:02.545Z,1.20
2018-01-01T11:55:28.887Z,1.53
2018-01-01T11:57:55.122Z,1.33
2018-01-01T12:00:22.077Z,1.50
2018-01-01T12:02:48.322Z,0.93
2018-01-01T12:05:14.581Z,0.80
2018-01-01T12:07:40.857Z,1.17
2018-01-01T12:10:07.127Z,1.00
2018-01-01T12:12:33.490Z,1.17
2018-01-01T12:14:59.902Z,1.37
2018-01-01T12:17:26.176Z,1.33
2018-01-01T12:19:52.437Z,1.10
2018-01-01T12:22:18.749Z,1.20
2018-01-01T12:24:45.010Z,1.20
2018-01-01T12:27:11.264Z,1.10
2018-01-01T12:29:38.290Z,1.47
2018-01-01T12:32:05.402Z,7.53
2018-01-01T12:34:31.659Z,1.90
2018-01-01T12:36:57.932Z,1.73
2018-01-01T12:39:24.207Z,1.47
2018-01-01T12:41:50.464Z,2.53
2018-01-01T12:44:16.769Z,1.37
2018-01-01T12:46:43.037Z,0.97
2018-01-01T12:49:09.918Z,0.93
2018-01-01T12:51:36.250Z,0.87
2018-01-01T12:54:02.530Z,1.50
2018-01-01T12:56:28.789Z,1.77
2018-01-01T12:58:55.803Z,1.70
2018-01-01T13:01:22.055Z,1.53
2018-01-01T13:03:48.378Z,2.23
2018-01-01T13:06:14.657Z,3.60
2018-01-01T13:08:41.648Z,4.30
2018-01-01T13:11:07.909Z,2.93
2018-01-01T13:13:35.009Z,1.97
2018-01-01T13:16:01.788Z,1.80
2018-01-01T13:18:28.029Z,2.13
2018-01-01T13:20:54.307Z,1.87
2018-01-01T13:23:21.627Z,2.40
2018-01-01T13:25:48.110Z,1.63
2018-01-01T13:28:14.409Z,1.93
2018-01-01T13:30:40.685Z,1.83
2018-01-01T13:33:07.738Z,2.37
2018-01-01T13:35:34.061Z,1.37
2018-01-01T13:38:00.331Z,1.60
2018-01-01T13:40:26.597Z,1.20
2018-01-01T13:42:52.870Z,1.80
2018-01-01T13:45:19.138Z,1.60
2018-01-01T13:47:45.390Z,1.40
2018-01-01T13:50:11.675Z,1.23
2018-01-01T13:52:37.966Z,1.97
2018-01-01T13:55:04.237Z,1.20
2018-01-01T13:57:30.642Z,1.63
2018-01-01T13:59:56.900Z,1.57
2018-01-01T14:02:24.393Z,2.37
2018-01-01T14:04:51.169Z,1.97
2018-01-01T14:07:18.304Z,1.70
2018-01-01T14:09:44.813Z,2.20
2018-01-01T14:12:11.284Z,2.80
2018-01-01T14:14:38.179Z,2.47
2018-01-01T14:17:04.930Z,2.20
2018-01-01T14:19:32.007Z,2.13
2018-01-01T14:21:59.105Z,1.77
2018-01-01T14:24:25.895Z,2.80
2018-01-01T14:26:52.737Z,1.63
2018-01-01T14:29:19.696Z,2.27
2018-01-01T14:31:46.041Z,1.97
2018-01-01T14:34:13.045Z,2.03
2018-01-01T14:36:39.358Z,1.87
2018-01-01T14:39:06.246Z,2.93
2018-01-01T14:41:32.596Z,2.27
2018-01-01T14:43:58.895Z,2.47
2018-01-01T14:46:25.158Z,1.47
2018-01-01T14:48:51.449Z,2.17
2018-01-01T14:51:17.753Z,2.13
2018-01-01T14:53:44.157Z,19.33
2018-01-01T14:56:10.427Z,2.60
2018-01-01T14:58:36.705Z,2.90
2018-01-01T15:01:04.446Z,3.17
2018-01-01T15:03:31.389Z,1.77
2018-01-01T15:05:57.779Z,1.47
2018-01-01T15:08:24.200Z,1.80
2018-01-01T15:10:50.563Z,2.27
2018-01-01T15:13:16.862Z,2.03
2018-01-01T15:15:43.139Z,2.03
2018-01-01T15:18:09.494Z,2.10
2018-01-01T15:20:37.073Z,1.67
2018-01-01T15:23:03.441Z,1.80
2018-01-01T15:25:29.750Z,2.93
2018-01-01T15:27:56.090Z,1.60
2018-01-01T15:30:22.397Z,2.70
2018-01-01T15:32:48.723Z,2.50
2018-01-01T15:35:16.090Z,2.17
2018-01-01T15:37:42.382Z,1.63
2018-01-01T15:40:08.672Z,2.20
2018-01-01T15:42:35.055Z,1.80
2018-01-01T15:45:02.156Z,2.23
2018-01-01T15:47:28.461Z,1.83
2018-01-01T15:49:54.717Z,2.00
2018-01-01T15:52:21.765Z,2.00
2018-01-01T15:54:48.886Z,2.83
2018-01-01T15:57:15.902Z,1.83
2018-01-01T15:59:42.280Z,1.63
2018-01-01T16:02:09.521Z,2.00
2018-01-01T16:04:35.783Z,2.43
2018-01-01T16:07:03.521Z,2.80
2018-01-01T16:09:29.874Z,2.67
2018-01-01T16:11:56.128Z,2.30
2018-01-01T16:14:22.387Z,2.57
2018-01-01T16:16:49.397Z,2.70
2018-01-01T16:19:16.473Z,1.93
2018-01-01T16:21:43.082Z,2.20
2018-01-01T16:24:09.382Z,2.17
2018-01-01T16:26:36.385Z,2.23
2018-01-01T16:29:02.664Z,1.83
2018-01-01T16:31:28.973Z,1.93
2018-01-01T16:33:55.236Z,1.70
2018-01-01T16:36:21.497Z,2.40
2018-01-01T16:38:47.768Z,2.77
2018-01-01T16:41:14.798Z,2.20
2018-01-01T16:43:41.054Z,2.17
2018-01-01T16:46:07.378Z,4.63
2018-01-01T16:48:33.637Z,4.53
2018-01-01T16:50:59.905Z,2.33
2018-01-01T16:53:26.189Z,4.67
2018-01-01T16:55:52.494Z,5.93
2018-01-01T16:58:18.853Z,4.43
2018-01-01T17:00:45.153Z,2.43
2018-01-01T17:03:11.425Z,6.80
2018-01-01T17:05:37.706Z,2.13
2018-01-01T17:08:04.724Z,3.20
2018-01-01T17:10:30.982Z,2.67
2018-01-01T17:12:57.269Z,1.70
2018-01-01T17:15:23.620Z,1.77
2018-01-01T17:17:49.868Z,1.63
2018-01-01T17:20:16.853Z,1.53
2018-01-01T17:22:43.129Z,1.50
2018-01-01T17:25:09.381Z,1.23
2018-01-01T17:27:35.654Z,1.93
2018-01-01T17:30:02.712Z,1.90
2018-01-01T17:32:28.999Z,1.00
2018-01-01T17:34:56.042Z,1.73
2018-01-01T17:37:22.356Z,1.50
2018-01-01T17:39:49.373Z,1.33
2018-01-01T17:42:16.398Z,0.70
2018-01-01T17:44:42.806Z,1.17
2018-01-01T17:47:09.117Z,1.00
2018-01-01T17:49:35.410Z,1.77
2018-01-01T17:52:01.773Z,1.93
2018-01-01T17:54:28.056Z,1.03
2018-01-01T17:56:55.100Z,1.07
2018-01-01T17:59:21.410Z,1.37
2018-01-01T18:01:47.792Z,1.33
2018-01-01T18:04:14.074Z,2.37
2018-01-01T18:06:40.353Z,1.27
2018-01-01T18:09:07.366Z,0.80
2018-01-01T18:11:33.625Z,1.10
2018-01-01T18:13:59.901Z,2.07
2018-01-01T18:16:26.894Z,2.60
2018-01-01T18:18:53.157Z,2.67
2018-01-01T18:21:20.195Z,1.27
2018-01-01T18:23:47.242Z,1.33
2018-01-01T18:26:13.510Z,1.47
2018-01-01T18:28:39.810Z,1.43
2018-01-01T18:31:06.101Z,1.20
2018-01-01T18:33:32.361Z,0.50
2018-01-01T18:35:58.682Z,1.97
2018-01-01T18:38:24.936Z,0.70
2018-01-01T18:40:52.039Z,1.90
2018-01-01T18:43:18.323Z,1.60
2018-01-01T18:45:44.698Z,1.37
2018-01-01T18:48:11.761Z,1.37
2018-01-01T18:50:38.101Z,1.50
2018-01-01T18:53:04.462Z,1.57
2018-01-01T18:55:30.733Z,0.80
2018-01-01T18:57:57.040Z,0.60
2018-01-01T19:00:23.364Z,0.93
2018-01-01T19:02:49.671Z,0.87
2018-01-01T19:05:16.000Z,1.00
2018-01-01T19:07:42.258Z,0.70
2018-01-01T19:10:08.529Z,0.97
2018-01-01T19:12:34.814Z,0.70
2018-01-01T19:15:01.065Z,1.00
2018-01-01T19:17:27.347Z,1.00
2018-01-01T19:19:53.625Z,0.83
2018-01-01T19:22:19.975Z,0.50
2018-01-01T19:24:46.248Z,0.90
2018-01-01T19:27:12.537Z,0.90
2018-01-01T19:29:38.830Z,0.70
2018-01-01T19:32:05.102Z,0.50
2018-01-01T19:34:31.371Z,0.73
2018-01-01T19:36:57.646Z,0.90
2018-01-01T19:39:24.632Z,0.70
2018-01-01T19:41:50.980Z,0.47
2018-01-01T19:44:17.338Z,0.50
2018-01-01T19:46:43.625Z,0.70
2018-01-01T19:49:10.662Z,0.77
2018-01-01T19:51:37.708Z,0.70
2018-01-01T19:54:03.957Z,0.40
2018-01-01T19:56:30.278Z,0.50
2018-01-01T19:58:56.542Z,0.50
2018-01-01T20:01:23.549Z,0.40
2018-01-01T20:03:50.594Z,0.80
2018-01-01T20:06:17.607Z,1.43
2018-01-01T20:08:43.869Z,0.53
2018-01-01T20:11:10.145Z,1.00
2018-01-01T20:13:36.424Z,0.70
2018-01-01T20:16:02.726Z,0.80
2018-01-01T20:18:29.005Z,0.63
2018-01-01T20:20:56.010Z,0.73
2018-01-01T20:23:22.316Z,0.60
2018-01-01T20:25:48.597Z,0.63
2018-01-01T20:28:14.862Z,0.40
2018-01-01T20:30:41.122Z,0.40
2018-01-01T20:33:07.394Z,0.30
2018-01-01T20:35:33.656Z,0.17
2018-01-01T20:37:59.918Z,0.30
2018-01-01T20:40:26.210Z,0.47
2018-01-01T20:42:52.521Z,0.10
2018-01-01T20:45:18.810Z,0.27
2018-01-01T20:47:45.085Z,0.10
2018-01-01T20:50:11.351Z,0.20
2018-01-01T20:52:37.616Z,0.10
2018-01-01T20:55:03.906Z,0.83
2018-01-01T20:57:30.162Z,0.20
2018-01-01T20:59:57.165Z,0.10
2018-01-01T21:02:23.565Z,0.10
2018-01-01T21:04:49.846Z,0.20
2018-01-01T21:07:16.770Z,0.33
2018-01-01T21:09:43.641Z,0.10
2018-01-01T21:12:11.917Z,0.40
2018-01-01T21:14:38.213Z,0.20
2018-01-01T21:17:04.522Z,0.00
2018-01-01T21:19:30.791Z,0.17
2018-01-01T21:21:57.780Z,0.20
2018-01-01T21:24:24.064Z,0.20
2018-01-01T21:26:50.325Z,0.10
2018-01-01T21:29:16.588Z,0.10
2018-01-01T21:31:42.873Z,0.07
2018-01-01T21:34:09.870Z,0.10
2018-01-01T21:36:36.130Z,0.10
2018-01-01T21:39:03.226Z,0.10
2018-01-01T21:41:29.488Z,0.10
2018-01-01T21:43:55.751Z,0.20
2018-01-01T21:46:22.054Z,0.10
2018-01-01T21:48:48.405Z,0.17
2018-01-01T21:51:14.781Z,0.20
2018-01-01T21:53:41.093Z,0.10
2018-01-01T21:56:07.353Z,0.30
2018-01-01T21:58:33.705Z,0.20
2018-01-01T22:00:59.993Z,0.17
2018-01-01T22:03:28.442Z,0.10
2018-01-01T22:05:54.701Z,0.20
2018-01-01T22:08:21.007Z,0.17
2018-01-01T22:10:47.266Z,0.10
2018-01-01T22:13:13.547Z,0.10
2018-01-01T22:15:39.827Z,0.20
2018-01-01T22:18:06.068Z,0.20
2018-01-01T22:20:32.341Z,0.17
2018-01-01T22:22:58.622Z,0.10
2018-01-01T22:25:24.899Z,0.03
2018-01-01T22:27:51.897Z,0.20
2018-01-01T22:30:18.190Z,0.00
2018-01-01T22:32:44.458Z,0.10
2018-01-01T22:35:11.457Z,0.10
2018-01-01T22:37:37.754Z,0.10
2018-01-01T22:40:04.754Z,0.10
2018-01-01T22:42:31.107Z,0.10
2018-01-01T22:44:57.405Z,0.07
2018-01-01T22:47:23.712Z,0.20
2018-01-01T22:49:49.986Z,0.10
2018-01-01T22:52:16.266Z,0.17
2018-01-01T22:54:42.522Z,0.20
2018-01-01T22:57:08.786Z,0.10
2018-01-01T22:59:35.066Z,0.10
2018-01-01T23:02:02.077Z,0.20
2018-01-01T23:04:28.378Z,0.10
2018-01-01T23:06:54.634Z,0.10
2018-01-01T23:09:21.621Z,0.00
2018-01-01T23:11:47.882Z,0.10
2018-01-01T23:14:14.897Z,0.10
2018-01-01T23:16:41.155Z,0.13
2018-01-01T23:19:07.478Z,0.10
2018-01-01T23:21:33.762Z,0.10
2018-01-01T23:24:00.018Z,0.10
2018-01-01T23:26:26.281Z,0.10
2018-01-01T23:28:52.566Z,0.20
2018-01-01T23:31:18.838Z,0.10
2018-01-01T23:33:45.125Z,0.07
2018-01-01T23:36:12.144Z,0.10
2018-01-01T23:38:38.394Z,0.20
2018-01-01T23:41:04.646Z,0.10
2018-01-01T23:43:30.928Z,0.03
2018-01-01T23:45:57.225Z,0.20
2018-01-01T23:48:24.233Z,0.30
2018-01-01T23:50:50.629Z,0.20
2018-01-01T23:53:16.901Z,0.20
2018-01-01T23:55:43.386Z,0.37
2018-01-01T23:58:12.975Z,0.20
